Time;durP1;ratioP1;P1;durP2;ratioP2;P2;SDS_P1;SDS_P2;PMS_P1;PMS_P2;Temp;Humidity;BMP_temperature;BMP_pressure;BME280_temperature;BME280_humidity;BME280_pressure;Samples;Min_cycle;Max_cycle;Signal;HPM_P1;HPM_P2
2023/05/02 00:01:32;;;;;;;4.32;2.20;;;20.20;57.70;;;;;;5092402;28;20051;-66
2023/05/02 00:03:58;;;;;;;4.15;2.00;;;20.20;57.60;;;;;;5092038;28;20067;-66
2023/05/02 00:06:23;;;;;;;4.70;2.15;;;20.20;57.60;;;;;;5093813;28;20044;-66
2023/05/02 00:08:49;;;;;;;3.75;2.22;;;20.20;57.70;;;;;;5095413;28;20040;-66
2023/05/02 00:11:14;;;;;;;3.97;2.17;;;20.20;57.70;;;;;;5096138;28;20100;-66
2023/05/02 00:13:40;;;;;;;4.25;1.85;;;20.20;57.60;;;;;;5095546;28;20044;-66
2023/05/02 00:16:06;;;;;;;4.25;1.90;;;20.20;57.60;;;;;;5094546;28;20248;-65
2023/05/02 00:18:31;;;;;;;3.53;2.10;;;20.20;57.60;;;;;;5095287;28;20055;-66
2023/05/02 00:20:57;;;;;;;4.85;2.17;;;20.20;57.50;;;;;;5096010;28;20043;-66
2023/05/02 00:23:22;;;;;;;5.00;2.30;;;20.20;57.50;;;;;;5096361;28;20136;-66
2023/05/02 00:25:48;;;;;;;4.78;2.10;;;20.20;57.50;;;;;;5095037;28;20082;-68
2023/05/02 00:28:14;;;;;;;3.20;2.00;;;20.10;57.50;;;;;;5095803;28;20051;-65
2023/05/02 00:30:43;;;;;;;5.15;2.22;;;20.10;57.50;;;;;;5096168;28;20054;-66
2023/05/02 00:33:11;;;;;;;3.65;2.20;;;20.10;57.50;;;;;;5095045;28;20043;-66
2023/05/02 00:35:37;;;;;;;5.13;2.10;;;20.10;57.50;;;;;;5095979;28;20047;-66
2023/05/02 00:38:02;;;;;;;3.92;2.10;;;20.10;57.50;;;;;;5095522;28;20040;-66
2023/05/02 00:40:28;;;;;;;3.72;1.88;;;20.10;57.50;;;;;;5094952;28;20131;-66
2023/05/02 00:42:53;;;;;;;6.57;2.10;;;20.10;57.50;;;;;;5096031;28;20123;-65
2023/05/02 00:45:19;;;;;;;3.67;2.00;;;20.10;57.50;;;;;;5095522;28;20476;-66
2023/05/02 00:47:44;;;;;;;3.95;2.50;;;20.10;57.40;;;;;;5094841;28;20392;-66
2023/05/02 00:50:10;;;;;;;4.05;2.17;;;20.10;57.40;;;;;;5095280;28;20044;-65
2023/05/02 00:52:36;;;;;;;3.67;2.10;;;20.10;57.50;;;;;;5095519;28;20128;-65
2023/05/02 00:55:02;;;;;;;3.97;2.55;;;20.10;57.40;;;;;;5093129;28;20123;-65
2023/05/02 00:57:28;;;;;;;3.80;2.15;;;20.10;57.50;;;;;;5095711;28;20127;-65
2023/05/02 00:59:53;;;;;;;3.60;2.30;;;20.10;57.40;;;;;;5095471;28;20462;-65
2023/05/02 01:02:33;;;;;;;4.07;2.22;;;20.00;57.40;;;;;;5093173;28;20048;-65
2023/05/02 01:05:09;;;;;;;3.25;2.03;;;20.00;57.40;;;;;;5076907;28;20079;-65
2023/05/02 01:07:40;;;;;;;5.20;2.03;;;20.00;57.40;;;;;;5095212;28;20052;-65
2023/05/02 01:10:32;;;;;;;2.85;1.83;;;20.00;57.40;;;;;;5095111;28;20558;-65
2023/05/02 01:13:20;;;;;;;4.57;2.22;;;20.00;57.40;;;;;;5079295;28;20495;-65
2023/05/02 01:15:45;;;;;;;;;;;20.00;57.40;;;;;;5093889;28;20048;-65
2023/05/02 01:18:11;;;;;;;2.80;1.65;;;20.00;57.40;;;;;;5092963;28;19916;-65
2023/05/02 01:20:40;;;;;;;3.55;2.00;;;20.00;57.50;;;;;;5077100;28;20054;-65
2023/05/02 01:23:20;;;;;;;4.95;2.20;;;20.00;57.50;;;;;;5092468;28;20044;-65
2023/05/02 01:26:11;;;;;;;3.38;1.77;;;20.00;57.50;;;;;;5078315;28;20060;-65
2023/05/02 01:28:54;;;;;;;2.70;1.67;;;20.00;57.50;;;;;;5095143;28;20079;-65
2023/05/02 01:31:20;;;;;;;3.15;1.83;;;20.00;57.50;;;;;;5078308;28;20055;-65
2023/05/02 01:33:45;;;;;;;4.00;2.22;;;20.00;57.50;;;;;;5076687;28;20044;-65
2023/05/02 01:36:12;;;;;;;4.35;2.10;;;20.00;57.50;;;;;;5075745;28;20114;-65
2023/05/02 01:38:37;;;;;;;2.60;1.75;;;20.00;57.40;;;;;;5093266;28;20042;-65
2023/05/02 01:41:04;;;;;;;5.30;2.00;;;20.00;57.40;;;;;;5076457;28;20115;-65
2023/05/02 01:43:30;;;;;;;2.42;1.60;;;20.00;57.50;;;;;;5092943;28;20101;-65
2023/05/02 01:45:56;;;;;;;2.63;1.73;;;19.90;57.40;;;;;;5076059;28;20130;-65
2023/05/02 01:48:21;;;;;;;3.70;2.33;;;19.90;57.40;;;;;;5093592;28;20441;-66
2023/05/02 01:50:47;;;;;;;4.15;1.92;;;19.90;57.40;;;;;;5075739;28;20479;-65
2023/05/02 01:53:13;;;;;;;3.00;1.80;;;19.90;57.40;;;;;;5076207;28;20040;-66
2023/05/02 01:55:40;;;;;;;3.00;1.90;;;19.90;57.40;;;;;;5093082;28;20040;-65
2023/05/02 01:58:06;;;;;;;3.60;1.98;;;19.90;57.40;;;;;;5093380;28;20075;-65
2023/05/02 02:00:32;;;;;;;3.72;1.83;;;19.90;57.40;;;;;;5092289;28;20071;-65
2023/05/02 02:02:57;;;;;;;3.13;1.70;;;19.90;57.40;;;;;;5093779;28;20044;-66
2023/05/02 02:05:23;;;;;;;3.03;1.75;;;19.90;57.40;;;;;;5091695;28;20492;-66
2023/05/02 02:07:48;;;;;;;4.20;1.70;;;19.90;57.40;;;;;;5093090;28;20547;-66
2023/05/02 02:10:14;;;;;;;3.13;1.90;;;19.90;57.40;;;;;;5075717;28;20386;-65
2023/05/02 02:12:47;;;;;;;4.03;1.90;;;19.90;57.40;;;;;;5093611;28;20132;-65
2023/05/02 02:15:19;;;;;;;3.25;1.80;;;19.90;57.40;;;;;;5092799;28;20494;-65
2023/05/02 02:17:48;;;;;;;3.13;1.55;;;19.90;57.40;;;;;;5093028;28;20075;-66
2023/05/02 02:20:14;;;;;;;3.20;1.60;;;19.90;57.30;;;;;;5091809;28;20174;-65
2023/05/02 02:22:41;;;;;;;2.67;1.55;;;19.90;57.40;;;;;;5094085;28;20111;-65
2023/05/02 02:25:09;;;;;;;3.72;1.63;;;19.90;57.40;;;;;;5092618;28;20064;-66
2023/05/02 02:27:38;;;;;;;3.75;1.70;;;19.90;57.40;;;;;;5093956;28;20475;-66
2023/05/02 02:30:04;;;;;;;3.50;1.70;;;19.90;57.40;;;;;;5091488;28;20048;-66
2023/05/02 02:32:30;;;;;;;2.85;1.50;;;19.90;57.40;;;;;;5093190;28;20047;-66
2023/05/02 02:34:55;;;;;;;2.58;1.60;;;19.80;57.30;;;;;;5093376;28;20052;-66
2023/05/02 02:37:28;;;;;;;3.83;1.83;;;19.80;57.30;;;;;;5092276;28;20116;-65
2023/05/02 02:40:06;;;;;;;2.78;1.50;;;19.80;57.30;;;;;;5093021;28;20080;-65
2023/05/02 02:42:49;;;;;;;2.13;1.42;;;19.80;57.30;;;;;;5093807;28;20044;-66
2023/05/02 02:45:24;;;;;;;2.53;1.60;;;19.80;57.30;;;;;;5092234;28;20075;-66
2023/05/02 02:48:19;;;;;;;2.30;1.50;;;19.80;57.40;;;;;;5092720;28;20040;-66
2023/05/02 02:51:08;;;;;;;2.08;1.40;;;19.80;57.30;;;;;;5092253;28;20047;-66
2023/05/02 02:53:50;;;;;;;3.05;1.80;;;19.80;57.30;;;;;;5091422;28;20036;-66
2023/05/02 02:56:21;;;;;;;3.05;1.40;;;19.80;57.40;;;;;;5091799;28;20077;-66
2023/05/02 02:59:03;;;;;;;3.08;1.45;;;19.80;57.40;;;;;;5092418;28;20100;-66
2023/05/02 03:01:30;;;;;;;3.30;1.65;;;19.80;57.40;;;;;;5091163;28;20507;-66
2023/05/02 03:03:56;;;;;;;3.00;1.58;;;19.80;57.40;;;;;;5091495;28;20039;-66
2023/05/02 03:06:21;;;;;;;1.85;1.27;;;19.80;57.40;;;;;;5075017;28;20044;-66
2023/05/02 03:08:47;;;;;;;2.75;1.40;;;19.80;57.30;;;;;;5074065;28;20047;-67
2023/05/02 03:11:12;;;;;;;2.90;1.13;;;19.80;57.30;;;;;;5092578;28;20047;-66
2023/05/02 03:13:38;;;;;;;3.10;1.60;;;19.80;57.40;;;;;;5091650;28;20039;-66
2023/05/02 03:16:29;;;;;;;3.08;1.45;;;19.80;57.40;;;;;;5090553;28;20116;-66
2023/05/02 03:18:54;;;;;;;2.25;1.40;;;19.80;57.40;;;;;;5092532;28;20040;-66
2023/05/02 03:21:20;;;;;;;2.55;1.35;;;19.80;57.40;;;;;;5091932;28;20055;-66
2023/05/02 03:23:45;;;;;;;2.28;1.50;;;19.80;57.40;;;;;;5091521;28;20040;-66
2023/05/02 03:26:11;;;;;;;2.63;1.30;;;19.80;57.50;;;;;;5092211;28;20063;-66
2023/05/02 03:28:36;;;;;;;2.75;1.50;;;19.80;57.40;;;;;;5091140;28;20040;-66
2023/05/02 03:31:02;;;;;;;1.83;1.30;;;19.80;57.40;;;;;;5092664;28;20085;-66
2023/05/02 03:33:28;;;;;;;3.05;1.40;;;19.80;57.50;;;;;;5092793;28;20052;-66
2023/05/02 03:35:53;;;;;;;2.17;1.45;;;19.80;57.50;;;;;;5090621;28;20040;-66
2023/05/02 03:38:19;;;;;;;3.47;1.50;;;19.80;57.50;;;;;;5092191;28;20040;-66
2023/05/02 03:40:44;;;;;;;1.88;1.10;;;19.90;57.60;;;;;;5093964;28;20109;-66
2023/05/02 03:43:10;;;;;;;2.25;1.30;;;19.80;57.60;;;;;;5096155;28;20043;-66
2023/05/02 03:45:36;;;;;;;3.15;1.38;;;19.90;57.60;;;;;;5097045;28;20048;-66
2023/05/02 03:48:01;;;;;;;2.20;1.30;;;19.90;57.60;;;;;;5096840;28;20044;-66
2023/05/02 03:50:27;;;;;;;3.58;1.40;;;19.90;57.60;;;;;;5095447;28;20040;-66
2023/05/02 03:52:52;;;;;;;2.42;1.10;;;19.90;57.60;;;;;;5097002;28;20043;-66
2023/05/02 03:55:18;;;;;;;1.80;1.05;;;19.90;57.60;;;;;;5096303;28;20138;-66
2023/05/02 03:57:44;;;;;;;2.03;1.20;;;19.90;57.50;;;;;;5095997;28;20048;-66
2023/05/02 04:00:10;;;;;;;2.25;1.20;;;19.90;57.50;;;;;;5096078;28;20044;-66
2023/05/02 04:02:36;;;;;;;1.60;1.15;;;19.90;57.50;;;;;;5096408;28;20067;-66
2023/05/02 04:05:01;;;;;;;2.97;1.40;;;20.00;57.60;;;;;;5094819;28;20048;-66
2023/05/02 04:07:27;;;;;;;2.17;1.30;;;20.00;57.50;;;;;;5094842;28;20032;-66
2023/05/02 04:09:52;;;;;;;2.40;1.42;;;20.00;57.50;;;;;;5096457;28;20079;-66
2023/05/02 04:12:18;;;;;;;3.10;1.20;;;20.00;57.50;;;;;;5094227;28;20058;-66
2023/05/02 04:14:44;;;;;;;3.75;1.52;;;20.00;57.40;;;;;;5095102;28;20071;-67
2023/05/02 04:17:09;;;;;;;1.92;1.02;;;20.00;57.40;;;;;;5095963;28;20052;-66
2023/05/02 04:19:35;;;;;;;3.42;1.30;;;20.00;57.40;;;;;;5095683;28;20040;-66
2023/05/02 04:22:01;;;;;;;2.70;1.27;;;20.00;57.40;;;;;;5094819;28;20391;-66
2023/05/02 04:24:27;;;;;;;2.47;1.13;;;20.00;57.40;;;;;;5095750;28;20040;-66
2023/05/02 04:26:53;;;;;;;2.53;1.23;;;20.00;57.40;;;;;;5095611;28;20059;-66
2023/05/02 04:29:19;;;;;;;1.77;1.17;;;20.10;57.40;;;;;;5095771;28;20055;-66
2023/05/02 04:31:44;;;;;;;3.03;1.30;;;20.10;57.40;;;;;;5095271;28;20036;-66
2023/05/02 04:34:10;;;;;;;2.97;1.38;;;20.10;57.40;;;;;;5094853;28;20119;-66
2023/05/02 04:36:36;;;;;;;2.78;1.13;;;20.10;57.40;;;;;;5094787;28;20135;-66
2023/05/02 04:39:02;;;;;;;3.25;1.30;;;20.10;57.30;;;;;;5094790;28;20043;-66
2023/05/02 04:41:28;;;;;;;3.03;1.20;;;20.10;57.20;;;;;;5096103;28;20044;-66
2023/05/02 04:43:53;;;;;;;2.97;1.40;;;20.10;57.20;;;;;;5095971;28;20040;-66
2023/05/02 04:46:19;;;;;;;3.03;1.23;;;20.10;57.20;;;;;;5094984;28;20076;-66
2023/05/02 04:48:45;;;;;;;4.03;1.52;;;20.10;57.20;;;;;;5095392;28;20036;-66
2023/05/02 04:51:10;;;;;;;3.45;1.20;;;20.10;57.20;;;;;;5095520;28;20512;-66
2023/05/02 04:53:36;;;;;;;3.97;1.42;;;20.10;57.20;;;;;;5093586;28;20051;-66
2023/05/02 04:56:02;;;;;;;4.80;1.20;;;20.10;57.20;;;;;;5095142;28;20040;-65
2023/05/02 04:58:27;;;;;;;3.67;1.10;;;20.10;57.20;;;;;;5094528;28;20044;-66
2023/05/02 05:00:53;;;;;;;5.10;1.55;;;20.10;57.20;;;;;;5094936;28;20040;-65
2023/05/02 05:03:19;;;;;;;2.95;0.90;;;20.10;57.10;;;;;;5095252;28;20132;-66
2023/05/02 05:05:45;;;;;;;3.17;1.20;;;20.20;57.20;;;;;;5095388;28;20074;-66
2023/05/02 05:08:10;;;;;;;3.35;1.30;;;20.20;57.10;;;;;;5092828;28;20047;-65
2023/05/02 05:10:36;;;;;;;2.42;1.27;;;20.20;57.10;;;;;;5095446;28;20113;-66
2023/05/02 05:13:03;;;;;;;2.92;1.20;;;20.10;57.00;;;;;;5095028;28;20480;-65
2023/05/02 05:15:28;;;;;;;2.83;1.05;;;20.20;57.00;;;;;;5094737;28;20048;-65
2023/05/02 05:17:54;;;;;;;3.70;1.45;;;20.20;56.90;;;;;;5094124;28;20123;-65
2023/05/02 05:20:19;;;;;;;3.85;1.20;;;20.20;56.90;;;;;;5094950;28;20074;-65
2023/05/02 05:22:45;;;;;;;5.10;1.30;;;20.20;56.90;;;;;;5094074;28;20043;-65
2023/05/02 05:25:11;;;;;;;4.90;1.42;;;20.10;56.90;;;;;;5094256;28;20056;-65
2023/05/02 05:27:36;;;;;;;4.32;1.40;;;20.10;56.90;;;;;;5095133;28;20036;-66
2023/05/02 05:30:05;;;;;;;2.85;1.00;;;20.10;57.60;;;;;;5094011;28;20480;-66
2023/05/02 05:32:34;;;;;;;2.80;1.35;;;20.10;56.80;;;;;;5095015;28;20040;-66
2023/05/02 05:35:00;;;;;;;3.05;1.05;;;20.10;56.80;;;;;;5092882;28;20479;-66
2023/05/02 05:37:26;;;;;;;4.63;1.10;;;20.10;56.80;;;;;;5094745;28;20129;-65
2023/05/02 05:39:51;;;;;;;2.80;1.25;;;20.10;56.80;;;;;;5094919;28;20044;-66
2023/05/02 05:42:17;;;;;;;4.40;1.40;;;20.10;56.70;;;;;;5092573;28;20036;-66
2023/05/02 05:44:42;;;;;;;3.05;1.20;;;20.10;56.70;;;;;;5094691;28;20044;-66
2023/05/02 05:47:08;;;;;;;3.83;1.30;;;20.10;56.80;;;;;;5094399;28;20075;-66
2023/05/02 05:49:35;;;;;;;3.20;1.17;;;20.10;56.80;;;;;;5093884;28;20032;-66
2023/05/02 05:52:00;;;;;;;2.38;1.00;;;20.10;56.70;;;;;;5093921;28;20048;-66
2023/05/02 05:54:26;;;;;;;3.45;1.00;;;20.10;56.70;;;;;;5094402;28;20040;-66
2023/05/02 05:56:52;;;;;;;2.97;1.10;;;20.10;56.60;;;;;;5093874;28;20047;-66
2023/05/02 05:59:17;;;;;;;4.95;1.10;;;20.10;56.70;;;;;;5093060;28;20132;-66
2023/05/02 06:01:43;;;;;;;4.13;1.30;;;20.10;56.80;;;;;;5094593;28;20051;-66
2023/05/02 06:04:08;;;;;;;3.38;1.20;;;20.10;57.50;;;;;;5092865;28;20039;-67
2023/05/02 06:06:34;;;;;;;5.82;1.10;;;20.10;56.80;;;;;;5094025;28;20044;-67
2023/05/02 06:08:59;;;;;;;3.67;1.20;;;20.10;56.80;;;;;;5094083;28;20043;-67
2023/05/02 06:11:25;;;;;;;3.08;1.13;;;20.10;56.80;;;;;;5093339;28;20083;-67
2023/05/02 06:13:51;;;;;;;4.68;1.20;;;20.10;56.90;;;;;;5092818;28;20067;-67
2023/05/02 06:16:17;;;;;;;3.85;1.38;;;20.10;56.90;;;;;;5093856;28;20085;-67
2023/05/02 06:18:43;;;;;;;5.10;1.20;;;20.10;57.00;;;;;;5091899;28;20476;-68
2023/05/02 06:21:08;;;;;;;3.50;1.10;;;20.10;57.00;;;;;;5092256;28;20048;-68
2023/05/02 06:23:34;;;;;;;5.47;1.20;;;20.10;57.10;;;;;;5093790;28;20036;-68
2023/05/02 06:26:00;;;;;;;2.65;0.93;;;20.10;57.10;;;;;;5092363;28;20503;-68
2023/05/02 06:28:26;;;;;;;5.30;1.10;;;20.10;57.10;;;;;;5093953;28;20052;-67
2023/05/02 06:31:04;;;;;;;6.78;1.30;;;20.10;57.20;;;;;;5093554;28;20058;-68
2023/05/02 06:33:30;;;;;;;;;;;20.10;57.40;;;;;;5093430;28;20044;-67
2023/05/02 06:35:56;;;;;;;4.43;1.00;;;20.10;57.40;;;;;;5093262;28;20517;-68
2023/05/02 06:38:21;;;;;;;4.50;1.17;;;20.10;57.40;;;;;;5093177;28;20036;-68
2023/05/02 06:40:47;;;;;;;5.18;1.15;;;20.20;57.50;;;;;;5093903;28;20406;-68
2023/05/02 06:43:13;;;;;;;4.20;1.10;;;20.20;57.60;;;;;;5093211;28;20051;-68
2023/05/02 06:45:39;;;;;;;4.68;1.13;;;20.20;57.70;;;;;;5092710;28;20044;-68
2023/05/02 06:48:05;;;;;;;6.32;1.30;;;20.20;57.80;;;;;;5093089;28;20136;-69
2023/05/02 06:50:30;;;;;;;3.83;1.27;;;20.30;57.90;;;;;;5092310;28;20052;-68
2023/05/02 06:52:56;;;;;;;3.42;0.80;;;20.30;57.90;;;;;;5092328;28;20412;-68
2023/05/02 06:55:21;;;;;;;3.50;1.38;;;20.30;58.00;;;;;;5090332;28;20040;-69
2023/05/02 06:57:50;;;;;;;3.45;1.10;;;20.30;58.00;;;;;;5085098;28;20044;-67
2023/05/02 07:00:16;;;;;;;6.32;1.35;;;20.30;58.20;;;;;;5090271;28;20040;-67
2023/05/02 07:02:43;;;;;;;5.57;1.20;;;20.30;58.20;;;;;;5086584;28;20098;-62
2023/05/02 07:05:08;;;;;;;4.60;1.20;;;20.40;58.30;;;;;;5079501;28;20051;-63
2023/05/02 07:07:34;;;;;;;5.60;1.20;;;20.30;58.20;;;;;;5090995;28;20044;-68
2023/05/02 07:10:00;;;;;;;4.60;1.05;;;20.40;58.10;;;;;;5091780;28;20086;-65
2023/05/02 07:12:25;;;;;;;3.83;1.10;;;20.40;58.10;;;;;;5090938;28;20434;-66
2023/05/02 07:14:51;;;;;;;11.18;1.40;;;20.40;58.10;;;;;;5091295;28;20075;-65
2023/05/02 07:17:17;;;;;;;5.82;1.27;;;20.40;58.10;;;;;;5091014;28;20044;-65
2023/05/02 07:19:42;;;;;;;4.40;1.00;;;20.40;58.20;;;;;;5091363;28;20398;-66
2023/05/02 07:22:08;;;;;;;3.40;1.30;;;20.40;58.20;;;;;;5091501;28;20538;-67
2023/05/02 07:24:33;;;;;;;3.60;1.00;;;20.40;58.30;;;;;;5092352;28;20408;-66
2023/05/02 07:26:59;;;;;;;3.35;1.20;;;20.40;58.30;;;;;;5092238;28;20047;-66
2023/05/02 07:29:25;;;;;;;2.92;1.20;;;20.40;58.40;;;;;;5092011;28;20075;-66
2023/05/02 07:31:51;;;;;;;3.92;1.35;;;20.50;58.40;;;;;;5092539;28;20076;-66
2023/05/02 07:34:16;;;;;;;3.45;1.10;;;20.50;58.40;;;;;;5092262;28;20040;-65
2023/05/02 07:36:42;;;;;;;4.65;1.45;;;20.50;58.30;;;;;;5091462;28;20051;-66
2023/05/02 07:39:07;;;;;;;2.70;1.40;;;20.50;58.30;;;;;;5092157;28;20039;-65
2023/05/02 07:41:33;;;;;;;3.33;1.27;;;20.50;58.30;;;;;;5091750;28;20097;-66
2023/05/02 07:43:58;;;;;;;4.82;1.45;;;20.50;58.30;;;;;;5092137;28;20036;-65
2023/05/02 07:46:24;;;;;;;3.05;0.98;;;20.50;58.20;;;;;;5091929;28;20044;-65
2023/05/02 07:48:50;;;;;;;5.97;1.33;;;20.50;58.20;;;;;;5091547;28;20150;-66
2023/05/02 07:51:15;;;;;;;3.97;1.40;;;20.50;58.10;;;;;;5098804;28;20038;-66
2023/05/02 07:53:41;;;;;;;3.28;1.30;;;20.50;58.10;;;;;;5086912;28;20048;-66
2023/05/02 07:56:07;;;;;;;4.13;1.42;;;20.50;58.10;;;;;;5090403;28;20040;-66
2023/05/02 07:58:35;;;;;;;3.60;1.30;;;20.50;58.00;;;;;;5088262;28;20064;-66
2023/05/02 08:01:00;;;;;;;3.55;1.10;;;20.50;58.00;;;;;;5090913;28;20533;-66
2023/05/02 08:03:26;;;;;;;4.75;1.35;;;20.50;58.00;;;;;;5089964;28;20040;-65
2023/05/02 08:05:52;;;;;;;4.80;1.10;;;20.50;58.00;;;;;;5091551;28;20094;-65
2023/05/02 08:08:18;;;;;;;3.95;1.30;;;20.50;58.00;;;;;;5090649;28;20075;-65
2023/05/02 08:10:44;;;;;;;5.57;1.23;;;20.50;58.00;;;;;;5091415;28;20115;-68
2023/05/02 08:13:10;;;;;;;3.10;1.20;;;20.50;58.00;;;;;;5091259;28;20487;-68
2023/05/02 08:15:36;;;;;;;4.57;1.25;;;20.50;58.00;;;;;;5092078;28;20120;-68
2023/05/02 08:18:01;;;;;;;3.25;1.00;;;20.50;57.90;;;;;;5089429;28;20044;-65
2023/05/02 08:20:27;;;;;;;6.10;1.10;;;20.50;57.90;;;;;;5090435;28;20113;-65
2023/05/02 08:22:53;;;;;;;3.10;1.02;;;20.50;57.90;;;;;;5091911;28;20044;-65
2023/05/02 08:25:18;;;;;;;4.20;1.42;;;20.50;57.90;;;;;;5090612;28;20060;-65
2023/05/02 08:27:44;;;;;;;3.33;1.00;;;20.50;57.90;;;;;;5093420;28;20066;-66
2023/05/02 08:30:10;;;;;;;4.80;1.40;;;20.50;57.90;;;;;;5093251;28;20397;-67
2023/05/02 08:32:36;;;;;;;3.25;1.10;;;20.50;57.80;;;;;;5094823;28;20051;-67
2023/05/02 08:35:02;;;;;;;4.25;1.40;;;20.50;57.80;;;;;;5095445;28;20123;-67
2023/05/02 08:37:27;;;;;;;4.20;1.30;;;20.50;57.80;;;;;;5112737;28;20475;-67
2023/05/02 08:39:53;;;;;;;3.30;0.98;;;20.50;57.70;;;;;;5104032;28;20036;-67
2023/05/02 08:42:21;;;;;;;5.82;1.35;;;20.50;57.70;;;;;;5098913;28;20040;-67
2023/05/02 08:44:47;;;;;;;7.03;1.55;;;20.60;57.70;;;;;;5086205;28;20052;-67
2023/05/02 08:47:13;;;;;;;4.60;1.42;;;20.50;57.70;;;;;;5090805;28;20073;-66
2023/05/02 08:49:39;;;;;;;3.25;1.30;;;20.60;57.70;;;;;;5092026;28;20075;-67
2023/05/02 08:52:05;;;;;;;3.65;1.05;;;20.60;57.70;;;;;;5088378;28;20068;-66
2023/05/02 08:54:31;;;;;;;4.47;1.48;;;20.60;57.70;;;;;;5092983;28;20044;-66
2023/05/02 08:56:58;;;;;;;3.78;1.08;;;20.60;57.70;;;;;;5092626;28;20055;-66
2023/05/02 08:59:24;;;;;;;4.85;1.10;;;20.60;57.70;;;;;;5092423;28;20047;-66
2023/05/02 09:01:51;;;;;;;2.50;1.15;;;20.70;57.70;;;;;;5092025;28;20123;-66
2023/05/02 09:04:19;;;;;;;5.88;1.30;;;20.70;57.70;;;;;;5093228;28;20047;-67
2023/05/02 09:06:44;;;;;;;4.05;1.33;;;20.70;57.70;;;;;;5102281;28;20111;-65
2023/05/02 09:09:10;;;;;;;7.53;1.50;;;20.70;57.70;;;;;;5115227;28;20394;-65
2023/05/02 09:11:36;;;;;;;3.15;1.20;;;20.70;57.60;;;;;;5114591;28;20084;-60
2023/05/02 09:14:03;;;;;;;5.32;1.27;;;20.70;57.50;;;;;;5056552;28;20048;-67
2023/05/02 09:16:28;;;;;;;4.85;1.25;;;20.70;57.50;;;;;;5092701;28;20407;-67
2023/05/02 09:18:55;;;;;;;5.70;1.30;;;20.70;57.50;;;;;;5088770;28;20507;-66
2023/05/02 09:21:24;;;;;;;6.07;1.17;;;20.70;57.60;;;;;;5093062;28;20040;-66
2023/05/02 09:23:53;;;;;;;3.90;1.30;;;20.70;57.70;;;;;;5093801;28;20139;-66
2023/05/02 09:26:28;;;;;;;4.88;1.52;;;20.70;57.70;;;;;;5088101;28;20044;-66
2023/05/02 09:28:54;;;;;;;3.17;1.30;;;20.70;57.80;;;;;;5081454;28;20415;-65
2023/05/02 09:31:30;;;;;;;8.63;1.42;;;20.70;57.70;;;;;;5090589;28;20520;-66
2023/05/02 09:33:55;;;;;;;4.25;1.30;;;20.70;57.60;;;;;;5089167;28;20048;-66
2023/05/02 09:36:21;;;;;;;3.60;1.38;;;20.70;57.50;;;;;;5092446;28;20411;-65
2023/05/02 09:38:48;;;;;;;3.30;1.23;;;20.70;57.50;;;;;;5092060;28;20476;-66
2023/05/02 09:41:13;;;;;;;4.88;1.33;;;20.70;57.40;;;;;;5090719;28;20040;-66
2023/05/02 09:43:39;;;;;;;7.53;1.50;;;20.60;57.40;;;;;;5092601;28;20035;-66
2023/05/02 09:46:08;;;;;;;5.93;1.40;;;20.70;57.60;;;;;;5093475;28;20047;-67
2023/05/02 09:48:56;;;;;;;5.50;1.58;;;20.60;57.70;;;;;;5090646;28;20040;-68
2023/05/02 09:51:22;;;;;;;;;;;20.60;57.80;;;;;;5093043;28;20107;-67
2023/05/02 09:53:48;;;;;;;4.05;1.38;;;20.60;57.90;;;;;;5093913;28;19920;-67
2023/05/02 09:56:14;;;;;;;4.32;1.40;;;20.60;57.80;;;;;;5092551;28;20347;-65
2023/05/02 09:58:40;;;;;;;5.28;1.35;;;20.60;57.90;;;;;;5093963;28;20044;-65
2023/05/02 10:01:05;;;;;;;4.40;1.33;;;20.70;57.90;;;;;;5093626;28;20063;-64
2023/05/02 10:03:31;;;;;;;3.38;1.40;;;20.60;57.90;;;;;;5092217;28;20543;-65
2023/05/02 10:05:57;;;;;;;7.75;1.45;;;20.60;57.90;;;;;;5075351;28;20078;-66
2023/05/02 10:08:27;;;;;;;6.45;1.50;;;20.60;57.80;;;;;;5094045;28;20036;-65
2023/05/02 10:10:56;;;;;;;4.97;1.40;;;20.60;57.80;;;;;;5093129;28;20079;-66
2023/05/02 10:13:25;;;;;;;4.50;1.40;;;20.60;57.80;;;;;;5093291;28;20040;-65
2023/05/02 10:16:01;;;;;;;5.32;1.45;;;20.60;57.80;;;;;;5099692;28;20051;-65
2023/05/02 10:18:53;;;;;;;4.75;1.23;;;20.60;57.80;;;;;;5090723;28;20126;-66
2023/05/02 10:21:28;;;;;;;3.35;1.15;;;20.60;57.80;;;;;;5093256;28;20044;-66
2023/05/02 10:23:53;;;;;;;6.07;1.40;;;20.60;57.80;;;;;;5090916;28;20464;-66
2023/05/02 10:26:22;;;;;;;4.25;1.40;;;20.60;57.80;;;;;;5091735;28;20430;-67
2023/05/02 10:28:49;;;;;;;4.68;1.40;;;20.60;57.70;;;;;;5093165;28;20177;-66
2023/05/02 10:31:15;;;;;;;6.18;1.33;;;20.50;57.50;;;;;;5092201;28;20538;-67
2023/05/02 10:33:40;;;;;;;6.60;1.40;;;20.60;57.60;;;;;;5093425;28;20036;-66
2023/05/02 10:36:08;;;;;;;5.30;1.55;;;20.50;57.50;;;;;;5099451;28;20119;-66
2023/05/02 10:38:35;;;;;;;6.63;1.40;;;20.60;57.60;;;;;;5112937;28;20044;-67
2023/05/02 10:41:04;;;;;;;4.60;1.15;;;20.50;57.60;;;;;;5111967;28;20039;-67
2023/05/02 10:43:33;;;;;;;5.97;1.50;;;20.50;57.50;;;;;;5095502;28;20054;-67
2023/05/02 10:46:00;;;;;;;4.25;1.52;;;20.60;57.60;;;;;;5093951;28;20100;-67
2023/05/02 10:48:26;;;;;;;4.22;1.23;;;20.60;57.70;;;;;;5113430;28;20510;-66
2023/05/02 10:51:00;;;;;;;6.00;1.58;;;20.60;57.70;;;;;;5110852;28;20138;-66
2023/05/02 10:53:30;;;;;;;6.00;1.70;;;20.60;57.70;;;;;;5111432;28;20398;-66
2023/05/02 10:56:21;;;;;;;4.47;1.58;;;20.60;57.60;;;;;;5113014;28;20035;-66
2023/05/02 10:58:48;;;;;;;6.38;1.45;;;20.60;57.60;;;;;;5112623;28;20053;-65
2023/05/02 11:01:29;;;;;;;5.65;1.42;;;20.60;57.60;;;;;;5112735;28;20035;-66
2023/05/02 11:04:01;;;;;;;7.78;1.67;;;20.60;57.60;;;;;;5112991;28;20478;-67
2023/05/02 11:06:27;;;;;;;6.18;1.70;;;20.60;57.60;;;;;;5094468;28;20040;-68
2023/05/02 11:09:17;;;;;;;9.15;1.80;;;20.60;57.50;;;;;;5092724;28;20096;-66
2023/05/02 11:11:46;;;;;;;6.30;1.52;;;20.60;57.40;;;;;;5097371;28;20054;-67
2023/05/02 11:14:38;;;;;;;7.90;1.90;;;20.60;57.30;;;;;;5112267;28;20051;-67
2023/05/02 11:17:04;;;;;;;8.02;1.85;;;20.60;57.10;;;;;;5098577;28;20048;-67
2023/05/02 11:19:56;;;;;;;8.20;1.40;;;20.60;57.10;;;;;;5092474;28;20058;-67
2023/05/02 11:22:25;;;;;;;7.10;1.75;;;20.60;57.00;;;;;;5106958;28;20043;-67
2023/05/02 11:24:51;;;;;;;5.72;1.15;;;20.60;57.00;;;;;;5112672;28;20495;-67
2023/05/02 11:27:29;;;;;;;4.63;1.45;;;20.60;56.90;;;;;;5111312;28;20071;-67
2023/05/02 11:29:58;;;;;;;6.85;1.23;;;20.60;56.90;;;;;;5111426;28;20138;-68
2023/05/02 11:32:26;;;;;;;6.28;1.25;;;20.60;56.90;;;;;;5112765;28;20039;-67
2023/05/02 11:34:51;;;;;;;8.55;1.23;;;20.60;56.90;;;;;;5111877;28;20491;-67
2023/05/02 11:37:18;;;;;;;8.55;1.50;;;20.60;56.90;;;;;;5111160;28;20096;-66
2023/05/02 11:39:45;;;;;;;3.10;1.20;;;20.60;56.80;;;;;;5111901;28;20044;-66
2023/05/02 11:42:29;;;;;;;5.40;1.48;;;20.60;56.80;;;;;;5106916;28;20048;-66
2023/05/02 11:44:56;;;;;;;4.30;1.10;;;20.60;56.70;;;;;;5092092;28;20059;-67
2023/05/02 11:47:21;;;;;;;3.53;1.27;;;20.60;56.60;;;;;;5092159;28;20032;-66
2023/05/02 11:49:47;;;;;;;3.10;1.20;;;20.60;56.60;;;;;;5090347;28;20369;-67
2023/05/02 11:52:12;;;;;;;4.22;1.15;;;20.60;56.60;;;;;;5091831;28;20563;-66
2023/05/02 11:54:38;;;;;;;3.70;1.20;;;20.60;56.60;;;;;;5090828;28;20048;-66
2023/05/02 11:57:03;;;;;;;2.95;1.17;;;20.60;56.50;;;;;;5073172;28;20047;-67
2023/05/02 11:59:29;;;;;;;5.32;1.58;;;20.60;56.50;;;;;;5091002;28;20044;-67
2023/05/02 12:01:56;;;;;;;4.55;1.40;;;20.60;56.40;;;;;;5092396;28;20044;-67
2023/05/02 12:04:22;;;;;;;6.07;1.27;;;20.50;56.30;;;;;;5096168;28;20047;-67
2023/05/02 12:06:55;;;;;;;3.03;1.20;;;20.50;56.30;;;;;;5095970;28;20127;-67
2023/05/02 12:09:21;;;;;;;5.28;1.33;;;20.50;56.30;;;;;;5108860;28;20054;-67
2023/05/02 12:11:53;;;;;;;5.05;1.00;;;20.50;56.30;;;;;;5107987;28;20044;-67
2023/05/02 12:14:28;;;;;;;4.28;0.90;;;20.50;56.30;;;;;;5077511;28;20040;-67
2023/05/02 12:16:55;;;;;;;2.83;0.93;;;20.50;56.20;;;;;;5095104;28;20044;-67
2023/05/02 12:19:21;;;;;;;3.65;1.10;;;20.50;56.20;;;;;;5077737;28;20495;-67
2023/05/02 12:21:46;;;;;;;4.10;1.30;;;20.50;56.20;;;;;;5095950;28;20082;-67
2023/05/02 12:24:13;;;;;;;3.10;1.10;;;20.50;56.20;;;;;;5094785;28;20039;-67
2023/05/02 12:26:39;;;;;;;2.55;1.10;;;20.50;56.20;;;;;;5096135;28;20040;-67
2023/05/02 12:29:06;;;;;;;4.50;1.33;;;20.40;56.10;;;;;;5095365;28;20539;-66
2023/05/02 12:31:32;;;;;;;2.93;1.00;;;20.40;56.20;;;;;;5094102;28;20054;-65
2023/05/02 12:33:59;;;;;;;2.60;1.00;;;20.40;56.20;;;;;;5095195;28;20040;-67
2023/05/02 12:36:27;;;;;;;4.53;1.10;;;20.40;56.10;;;;;;5095251;28;20036;-67
2023/05/02 12:38:53;;;;;;;;;;;20.40;56.00;;;;;;5094949;28;20036;-66
2023/05/02 12:41:31;;;;;;;4.80;1.42;;;20.40;55.90;;;;;;5087988;28;19997;-66
2023/05/02 12:43:57;;;;;;;3.47;1.05;;;20.40;55.90;;;;;;5093258;28;20121;-68
2023/05/02 12:46:23;;;;;;;3.60;0.98;;;20.40;55.90;;;;;;5095051;28;20036;-67
2023/05/02 12:49:01;;;;;;;3.13;1.10;;;20.30;55.90;;;;;;5091558;28;20047;-67
2023/05/02 12:51:27;;;;;;;4.43;0.95;;;20.40;55.90;;;;;;5092527;28;20507;-67